createdAt,value
2022-11-22T00:00:27.780Z,8.10
2022-11-22T00:02:54.854Z,8.10
2022-11-22T00:05:21.769Z,8.20
2022-11-22T00:07:48.595Z,8.20
2022-11-22T00:10:15.971Z,8.20
2022-11-22T00:12:43.291Z,8.20
2022-11-22T00:15:11.122Z,8.10
2022-11-22T00:17:38.043Z,8.10
2022-11-22T00:20:06.956Z,8.10
2022-11-22T00:22:33.776Z,8.10
2022-11-22T00:25:00.778Z,8.20
2022-11-22T00:27:27.924Z,8.10
2022-11-22T00:29:54.687Z,8.00
2022-11-22T00:32:21.522Z,8.00
2022-11-22T00:34:48.282Z,8.00
2022-11-22T00:37:14.967Z,8.10
2022-11-22T00:39:41.698Z,8.10
2022-11-22T00:42:08.417Z,8.10
2022-11-22T00:44:35.379Z,8.20
2022-11-22T00:47:02.040Z,8.20
2022-11-22T00:49:29.046Z,8.30
2022-11-22T00:51:55.974Z,8.30
2022-11-22T00:54:22.843Z,8.30
2022-11-22T00:56:49.669Z,8.20
2022-11-22T00:59:16.329Z,8.30
2022-11-22T01:01:43.140Z,8.20
2022-11-22T01:04:09.981Z,8.20
2022-11-22T01:06:36.717Z,8.20
2022-11-22T01:09:03.696Z,8.20
2022-11-22T01:11:30.340Z,8.20
2022-11-22T01:13:57.209Z,8.20
2022-11-22T01:16:24.027Z,8.20
2022-11-22T01:18:50.781Z,8.20
2022-11-22T01:21:17.551Z,8.10
2022-11-22T01:23:44.345Z,8.10
2022-11-22T01:26:12.903Z,8.00
2022-11-22T01:28:39.741Z,8.00
2022-11-22T01:31:06.495Z,8.00
2022-11-22T01:33:33.229Z,7.90
2022-11-22T01:35:59.936Z,8.00
2022-11-22T01:38:26.801Z,8.00
2022-11-22T01:40:54.007Z,8.00
2022-11-22T01:43:23.791Z,8.00
2022-11-22T01:45:55.815Z,7.90
2022-11-22T01:48:54.046Z,7.90
2022-11-22T01:51:28.374Z,7.90
2022-11-22T01:53:58.919Z,7.90
2022-11-22T01:56:26.745Z,7.80
2022-11-22T01:58:58.443Z,7.80
2022-11-22T02:01:25.278Z,7.80
2022-11-22T02:03:53.601Z,7.80
2022-11-22T02:06:21.224Z,7.70
2022-11-22T02:09:05.594Z,7.70
2022-11-22T02:11:34.501Z,7.70
2022-11-22T02:14:02.152Z,7.70
2022-11-22T02:16:29.296Z,7.70
2022-11-22T02:18:56.073Z,7.60
2022-11-22T02:21:22.875Z,7.70
2022-11-22T02:23:52.617Z,7.70
2022-11-22T02:26:19.468Z,7.60
2022-11-22T02:28:46.833Z,7.70
2022-11-22T02:31:37.059Z,7.60
2022-11-22T02:34:03.843Z,7.70
2022-11-22T02:36:35.209Z,7.70
2022-11-22T02:39:02.036Z,7.80
2022-11-22T02:41:28.909Z,7.80
2022-11-22T02:43:55.735Z,7.80
2022-11-22T02:46:23.621Z,7.80
2022-11-22T02:48:50.605Z,7.80
2022-11-22T02:51:20.089Z,7.80
2022-11-22T02:53:48.766Z,7.70
2022-11-22T02:56:16.952Z,7.70
2022-11-22T02:58:44.382Z,7.70
2022-11-22T03:01:12.895Z,7.60
2022-11-22T03:03:39.708Z,7.60
2022-11-22T03:06:06.644Z,7.50
2022-11-22T03:08:33.447Z,7.50
2022-11-22T03:11:00.728Z,7.50
2022-11-22T03:13:27.642Z,7.50
2022-11-22T03:15:54.550Z,7.50
2022-11-22T03:18:21.695Z,7.50
2022-11-22T03:20:48.452Z,7.50
2022-11-22T03:23:15.474Z,7.50
2022-11-22T03:25:42.424Z,7.50
2022-11-22T03:28:09.380Z,7.50
2022-11-22T03:30:40.382Z,7.40
2022-11-22T03:33:07.362Z,7.50
2022-11-22T03:35:34.161Z,7.60
2022-11-22T03:38:00.864Z,7.60
2022-11-22T03:40:27.599Z,7.60
2022-11-22T03:42:54.367Z,7.70
2022-11-22T03:45:21.072Z,7.70
2022-11-22T03:47:47.832Z,7.80
2022-11-22T03:50:15.072Z,7.80
2022-11-22T03:52:41.752Z,7.80
2022-11-22T03:55:08.836Z,7.80
2022-11-22T03:57:35.592Z,7.80
2022-11-22T04:00:02.269Z,7.80
2022-11-22T04:02:29.045Z,7.80
2022-11-22T04:04:55.784Z,7.70
2022-11-22T04:07:22.853Z,7.70
2022-11-22T04:09:49.648Z,7.60
2022-11-22T04:12:16.410Z,7.60
2022-11-22T04:15:01.771Z,7.50
2022-11-22T04:17:40.472Z,7.50
2022-11-22T04:20:28.084Z,7.50
2022-11-22T04:22:59.693Z,7.50
2022-11-22T04:25:28.116Z,7.40
2022-11-22T04:27:55.554Z,7.40
2022-11-22T04:30:42.386Z,7.40
2022-11-22T04:33:10.636Z,7.40
2022-11-22T04:35:38.487Z,7.30
2022-11-22T04:38:05.656Z,7.30
2022-11-22T04:40:33.073Z,7.20
2022-11-22T04:43:18.281Z,7.20
2022-11-22T04:45:45.200Z,7.20
2022-11-22T04:48:12.583Z,7.20
2022-11-22T04:50:58.842Z,7.20
2022-11-22T04:53:26.425Z,7.10
2022-11-22T04:55:53.436Z,7.10
2022-11-22T04:58:20.745Z,7.10
2022-11-22T05:00:47.895Z,7.10
2022-11-22T05:03:14.856Z,7.10
2022-11-22T05:05:43.537Z,7.10
2022-11-22T05:08:10.690Z,7.10
2022-11-22T05:10:56.417Z,7.10
2022-11-22T05:13:43.653Z,7.10
2022-11-22T05:16:12.801Z,7.10
2022-11-22T05:18:39.857Z,7.10
2022-11-22T05:21:09.215Z,7.10
2022-11-22T05:23:54.418Z,7.10
2022-11-22T05:26:26.835Z,7.20
2022-11-22T05:28:54.286Z,7.20
2022-11-22T05:31:27.259Z,7.20
2022-11-22T05:33:56.466Z,7.20
2022-11-22T05:36:24.268Z,7.20
2022-11-22T05:38:51.957Z,7.20
2022-11-22T05:41:19.119Z,7.10
2022-11-22T05:43:46.078Z,7.20
2022-11-22T05:46:19.470Z,7.10
2022-11-22T05:48:49.637Z,7.20
2022-11-22T05:51:19.731Z,7.10
2022-11-22T05:53:46.934Z,7.20
2022-11-22T05:56:16.275Z,7.20
2022-11-22T05:58:43.756Z,7.20
2022-11-22T06:01:19.456Z,7.20
2022-11-22T06:03:46.662Z,7.20
2022-11-22T06:06:14.241Z,7.20
2022-11-22T06:08:45.113Z,7.20
2022-11-22T06:11:16.729Z,7.20
2022-11-22T06:13:45.136Z,7.30
2022-11-22T06:16:11.970Z,7.30
2022-11-22T06:18:39.209Z,7.30
2022-11-22T06:21:10.463Z,7.20
2022-11-22T06:23:37.231Z,7.20
2022-11-22T06:26:06.970Z,7.20
2022-11-22T06:28:35.482Z,7.20
2022-11-22T06:31:12.804Z,7.10
2022-11-22T06:33:40.160Z,7.10
2022-11-22T06:36:09.277Z,7.10
2022-11-22T06:38:36.440Z,7.10
2022-11-22T06:41:05.753Z,7.10
2022-11-22T06:43:33.903Z,7.10
2022-11-22T06:46:02.031Z,7.10
2022-11-22T06:48:37.729Z,7.10
2022-11-22T06:51:07.972Z,7.20
2022-11-22T06:53:50.995Z,7.20
2022-11-22T06:56:20.475Z,7.20
2022-11-22T06:58:48.985Z,7.20
2022-11-22T07:01:18.722Z,7.20
2022-11-22T07:03:46.461Z,7.20
2022-11-22T07:06:14.611Z,7.30
2022-11-22T07:08:42.168Z,7.20
2022-11-22T07:11:14.497Z,7.30
2022-11-22T07:13:41.646Z,7.20
2022-11-22T07:16:10.669Z,7.20
2022-11-22T07:18:37.576Z,7.20
2022-11-22T07:21:12.895Z,7.20
2022-11-22T07:23:42.492Z,7.10
2022-11-22T07:26:09.808Z,7.10
2022-11-22T07:28:37.261Z,7.10
2022-11-22T07:31:06.472Z,7.10
2022-11-22T07:33:33.744Z,7.00
2022-11-22T07:36:05.451Z,7.10
2022-11-22T07:38:32.915Z,7.10
2022-11-22T07:40:59.917Z,7.10
2022-11-22T07:43:26.916Z,7.10
2022-11-22T07:45:53.665Z,7.10
2022-11-22T07:48:20.955Z,7.10
2022-11-22T07:50:47.766Z,7.20
2022-11-22T07:53:14.522Z,7.10
2022-11-22T07:55:41.199Z,7.20
2022-11-22T07:58:08.075Z,7.20
2022-11-22T08:00:34.908Z,7.20
2022-11-22T08:03:01.712Z,7.20
2022-11-22T08:05:28.552Z,7.30
2022-11-22T08:07:55.682Z,7.40
2022-11-22T08:10:22.863Z,7.40
2022-11-22T08:12:49.611Z,7.40
2022-11-22T08:15:17.468Z,7.40
2022-11-22T08:17:44.320Z,7.50
2022-11-22T08:20:11.555Z,7.50
2022-11-22T08:22:39.624Z,7.50
2022-11-22T08:25:12.410Z,7.50
2022-11-22T08:27:41.291Z,7.50
2022-11-22T08:30:09.648Z,7.50
2022-11-22T08:32:36.796Z,7.50
2022-11-22T08:35:04.327Z,7.50
2022-11-22T08:37:31.100Z,7.60
2022-11-22T08:39:57.933Z,7.70
2022-11-22T08:42:24.609Z,7.70
2022-11-22T08:44:51.419Z,7.80
2022-11-22T08:47:18.208Z,7.80
2022-11-22T08:49:44.906Z,7.90
2022-11-22T08:52:11.708Z,8.00
2022-11-22T08:54:38.509Z,8.00
2022-11-22T08:57:05.486Z,8.10
2022-11-22T08:59:33.195Z,8.30
2022-11-22T09:02:00.750Z,8.40
2022-11-22T09:04:27.549Z,8.40
2022-11-22T09:09:40.948Z,8.50
2022-11-22T09:12:07.905Z,8.60
2022-11-22T09:14:34.688Z,8.60
2022-11-22T09:17:01.525Z,8.80
2022-11-22T09:19:28.619Z,8.90
2022-11-22T09:21:55.600Z,9.10
2022-11-22T09:24:22.388Z,9.20
2022-11-22T09:26:49.117Z,9.30
2022-11-22T09:29:16.023Z,9.50
2022-11-22T09:31:42.929Z,9.60
2022-11-22T09:34:09.592Z,9.80
2022-11-22T09:36:36.513Z,9.90
2022-11-22T09:39:03.423Z,10.00
2022-11-22T09:41:47.601Z,10.00
2022-11-22T09:44:45.202Z,10.00
2022-11-22T09:47:42.445Z,9.90
2022-11-22T09:50:41.785Z,9.80
2022-11-22T09:53:18.299Z,9.70
2022-11-22T09:55:48.968Z,9.70
2022-11-22T09:58:51.710Z,9.60
2022-11-22T10:01:22.081Z,9.50
2022-11-22T10:04:01.528Z,9.50
2022-11-22T10:06:41.272Z,9.50
2022-11-22T10:09:36.763Z,9.40
2022-11-22T10:12:27.648Z,9.40
2022-11-22T10:15:19.312Z,9.30
2022-11-22T10:18:25.712Z,9.30
2022-11-22T10:20:53.354Z,9.40
2022-11-22T10:23:22.829Z,9.40
2022-11-22T10:26:27.433Z,9.50
2022-11-22T10:29:12.605Z,9.50
2022-11-22T10:32:03.824Z,9.60
2022-11-22T10:34:45.093Z,9.60
2022-11-22T10:37:20.225Z,9.70
2022-11-22T10:40:00.810Z,9.70
2022-11-22T10:42:30.940Z,9.70
2022-11-22T10:44:57.584Z,9.70
2022-11-22T10:47:48.018Z,9.70
2022-11-22T10:50:23.824Z,9.80
2022-11-22T10:52:59.810Z,9.80
2022-11-22T10:55:48.214Z,9.80
2022-11-22T10:58:45.319Z,9.90
2022-11-22T11:01:41.784Z,10.10
2022-11-22T11:04:12.425Z,10.10
2022-11-22T11:07:11.223Z,10.10
2022-11-22T11:12:56.983Z,10.20
2022-11-22T11:15:28.292Z,10.10
2022-11-22T11:18:00.914Z,10.30
2022-11-22T11:20:31.687Z,10.40
2022-11-22T11:23:14.071Z,10.50
2022-11-22T11:25:44.316Z,10.50
2022-11-22T11:28:26.901Z,10.60
2022-11-22T11:31:02.080Z,10.50
2022-11-22T11:33:34.950Z,10.30
2022-11-22T11:36:10.644Z,10.20
2022-11-22T11:38:40.395Z,10.20
2022-11-22T11:41:29.566Z,10.20
2022-11-22T11:44:01.794Z,10.20
2022-11-22T11:46:49.897Z,10.30
2022-11-22T11:49:18.826Z,10.30
2022-11-22T11:51:48.544Z,10.20
2022-11-22T11:54:21.722Z,10.30
2022-11-22T11:56:52.664Z,10.40
2022-11-22T11:59:21.735Z,10.40
2022-11-22T12:01:59.954Z,10.50
2022-11-22T12:04:30.908Z,10.70
2022-11-22T12:07:16.850Z,10.70
2022-11-22T12:09:46.167Z,10.70
2022-11-22T12:12:26.791Z,10.60
2022-11-22T12:15:11.841Z,10.50
2022-11-22T12:17:48.718Z,10.50
2022-11-22T12:20:22.388Z,10.40
2022-11-22T12:23:17.361Z,10.50
2022-11-22T12:25:45.752Z,10.50
2022-11-22T12:28:19.145Z,10.50
2022-11-22T12:30:53.058Z,10.60
2022-11-22T12:33:27.446Z,10.60
2022-11-22T12:35:55.540Z,10.60
2022-11-22T12:38:28.794Z,10.60
2022-11-22T12:40:59.284Z,10.50
2022-11-22T12:43:49.900Z,10.50
2022-11-22T12:46:19.524Z,10.40
2022-11-22T12:49:06.289Z,10.30
2022-11-22T12:51:54.041Z,10.40
2022-11-22T12:54:30.120Z,10.40
2022-11-22T12:57:01.213Z,10.40
2022-11-22T12:59:51.395Z,10.30
2022-11-22T13:02:59.788Z,10.40
2022-11-22T13:06:03.655Z,10.30
2022-11-22T13:08:57.675Z,10.40
2022-11-22T13:11:42.970Z,10.40
2022-11-22T13:14:20.831Z,10.40
2022-11-22T13:16:50.698Z,10.40
2022-11-22T13:19:20.042Z,10.30
2022-11-22T13:22:11.701Z,10.20
2022-11-22T13:25:07.534Z,10.30
2022-11-22T13:27:44.345Z,10.30
2022-11-22T13:30:22.671Z,10.40
2022-11-22T13:32:55.752Z,10.40
2022-11-22T13:35:35.728Z,10.40
2022-11-22T13:38:14.125Z,10.40
2022-11-22T13:40:47.079Z,10.40
2022-11-22T13:43:17.862Z,10.40
2022-11-22T13:46:02.152Z,10.40
2022-11-22T13:49:21.039Z,10.40
2022-11-22T13:51:52.596Z,10.50
2022-11-22T13:54:39.941Z,10.50
2022-11-22T13:57:25.577Z,10.50
2022-11-22T14:00:16.652Z,10.60
2022-11-22T14:02:47.448Z,10.50
2022-11-22T14:05:26.790Z,10.50
2022-11-22T14:07:56.140Z,10.60
2022-11-22T14:10:46.836Z,10.50
2022-11-22T14:13:25.516Z,10.50
2022-11-22T14:16:10.643Z,10.40
2022-11-22T14:18:54.314Z,10.40
2022-11-22T14:21:38.904Z,10.40
2022-11-22T14:24:40.646Z,10.40
2022-11-22T14:27:10.197Z,10.40
2022-11-22T14:29:57.469Z,10.40
2022-11-22T14:32:26.141Z,10.50
2022-11-22T14:35:05.132Z,10.40
2022-11-22T14:40:29.389Z,10.40
2022-11-22T14:43:22.082Z,10.30
2022-11-22T14:46:37.355Z,10.30
2022-11-22T14:49:10.975Z,10.30
2022-11-22T14:51:39.208Z,10.30
2022-11-22T14:54:35.361Z,10.30
2022-11-22T14:57:07.399Z,10.30
2022-11-22T14:59:52.376Z,10.30
2022-11-22T15:03:02.172Z,10.30
2022-11-22T15:09:17.456Z,10.20
2022-11-22T15:09:46.640Z,10.20
2022-11-22T15:12:25.836Z,10.20
2022-11-22T15:57:30.962Z,10.10
2022-11-22T15:59:58.506Z,10.00
2022-11-22T16:02:30.202Z,10.00
2022-11-22T16:06:07.592Z,10.00
2022-11-22T16:07:52.632Z,10.00
2022-11-22T16:10:22.746Z,10.10
2022-11-22T16:12:50.880Z,10.00
2022-11-22T16:15:26.894Z,10.00
2022-11-22T16:18:15.606Z,10.00
2022-11-22T16:20:59.222Z,10.00
2022-11-22T16:23:28.200Z,9.90
2022-11-22T16:26:12.480Z,9.90
2022-11-22T16:28:39.672Z,9.90
2022-11-22T16:31:28.875Z,9.90
2022-11-22T16:33:57.105Z,9.90
2022-11-22T16:36:28.427Z,9.90
2022-11-22T16:38:55.342Z,9.90
2022-11-22T16:41:23.242Z,9.90
2022-11-22T16:44:00.116Z,9.90
2022-11-22T16:46:27.778Z,9.90
2022-11-22T16:48:56.347Z,9.90
2022-11-22T16:51:29.008Z,9.90
2022-11-22T16:54:05.842Z,9.90
2022-11-22T16:56:33.026Z,9.90
2022-11-22T16:58:59.922Z,9.90
2022-11-22T17:01:32.970Z,9.90
2022-11-22T17:04:01.709Z,9.90
2022-11-22T17:06:30.824Z,9.90
2022-11-22T17:08:59.165Z,9.90
2022-11-22T17:11:29.735Z,9.90
2022-11-22T17:13:57.113Z,9.90
2022-11-22T17:16:24.161Z,9.90
2022-11-22T17:18:51.237Z,9.80
2022-11-22T17:21:37.471Z,9.90
2022-11-22T17:24:06.855Z,9.90
2022-11-22T17:26:34.860Z,9.90
2022-11-22T17:29:01.989Z,9.90
2022-11-22T17:31:29.165Z,9.90
2022-11-22T17:33:58.645Z,9.90
2022-11-22T17:36:30.973Z,9.90
2022-11-22T17:38:59.865Z,9.90
2022-11-22T17:41:27.328Z,9.90
2022-11-22T17:43:54.416Z,9.90
2022-11-22T17:46:21.282Z,9.90
2022-11-22T17:48:59.654Z,9.90
2022-11-22T17:51:30.165Z,9.90
2022-11-22T17:54:00.884Z,9.80
2022-11-22T17:56:28.937Z,9.90
2022-11-22T17:58:55.730Z,9.90
2022-11-22T18:01:23.486Z,9.90
2022-11-22T18:03:50.382Z,9.90
2022-11-22T18:06:18.817Z,9.80
2022-11-22T18:08:47.444Z,9.80
2022-11-22T18:11:15.340Z,9.80
2022-11-22T18:13:43.271Z,9.80
2022-11-22T18:16:15.329Z,9.80
2022-11-22T18:18:58.437Z,9.70
2022-11-22T18:21:30.450Z,9.70
2022-11-22T18:24:00.966Z,9.70
2022-11-22T18:26:43.673Z,9.70
2022-11-22T18:29:41.717Z,9.80
2022-11-22T18:32:00.035Z,9.80
2022-11-22T18:34:27.804Z,9.80
2022-11-22T18:37:00.916Z,9.70
2022-11-22T18:39:30.772Z,9.80
2022-11-22T18:41:57.891Z,9.80
2022-11-22T18:44:24.665Z,9.70
2022-11-22T18:46:51.464Z,9.80
2022-11-22T18:49:18.366Z,9.80
2022-11-22T18:51:45.092Z,9.80
2022-11-22T18:54:11.859Z,9.80
2022-11-22T18:56:40.343Z,9.80
2022-11-22T18:59:10.428Z,9.90
2022-11-22T19:01:37.368Z,9.80
2022-11-22T19:04:05.126Z,9.80
2022-11-22T19:06:32.416Z,9.90
2022-11-22T19:08:59.351Z,9.90
2022-11-22T19:11:28.441Z,9.90
2022-11-22T19:13:55.415Z,9.90
2022-11-22T19:16:23.245Z,9.90
2022-11-22T19:18:50.506Z,9.90
2022-11-22T19:21:22.457Z,9.90
2022-11-22T19:23:49.981Z,9.90
2022-11-22T19:26:20.540Z,10.00
2022-11-22T19:28:48.548Z,9.90
2022-11-22T19:31:22.870Z,10.00
2022-11-22T19:33:50.021Z,10.00
2022-11-22T19:36:21.343Z,9.90
2022-11-22T19:38:48.881Z,9.90
2022-11-22T19:41:20.888Z,9.90
2022-11-22T19:43:48.992Z,9.90
2022-11-22T19:46:16.237Z,9.90
2022-11-22T19:48:46.891Z,9.90
2022-11-22T19:51:15.206Z,9.90
2022-11-22T19:53:42.519Z,9.90
2022-11-22T19:56:13.576Z,9.90
2022-11-22T19:58:40.702Z,9.90
2022-11-22T20:01:09.776Z,10.00
2022-11-22T20:03:38.753Z,10.00
2022-11-22T20:06:07.269Z,10.00
2022-11-22T20:08:34.164Z,10.00
2022-11-22T20:11:03.096Z,10.00
2022-11-22T20:13:30.815Z,10.00
2022-11-22T20:15:58.000Z,10.10
2022-11-22T20:18:24.874Z,10.10
2022-11-22T20:20:55.361Z,10.00
2022-11-22T20:23:22.150Z,10.00
2022-11-22T20:25:48.821Z,10.10
2022-11-22T20:28:15.905Z,10.00
2022-11-22T20:30:42.585Z,10.00
2022-11-22T20:33:09.355Z,10.00
2022-11-22T20:35:36.256Z,9.90
2022-11-22T20:38:03.127Z,9.90
2022-11-22T20:40:29.799Z,9.80
2022-11-22T20:42:56.561Z,9.80
2022-11-22T20:45:23.371Z,9.70
2022-11-22T20:47:50.140Z,9.60
2022-11-22T20:50:17.496Z,9.60
2022-11-22T20:52:44.246Z,9.50
2022-11-22T20:55:11.128Z,9.50
2022-11-22T20:57:38.440Z,9.50
2022-11-22T21:00:05.660Z,9.50
2022-11-22T21:02:34.682Z,9.50
2022-11-22T21:05:01.454Z,9.50
2022-11-22T21:07:28.309Z,9.60
2022-11-22T21:09:55.056Z,9.60
2022-11-22T21:12:21.753Z,9.60
2022-11-22T21:14:52.546Z,9.60
2022-11-22T21:17:39.699Z,9.60
2022-11-22T21:20:07.589Z,9.70
2022-11-22T21:22:34.362Z,9.70
2022-11-22T21:25:01.282Z,9.70
2022-11-22T21:27:28.102Z,9.70
2022-11-22T21:29:54.835Z,9.70
2022-11-22T21:32:21.568Z,9.70
2022-11-22T21:34:48.298Z,9.70
2022-11-22T21:37:15.289Z,9.70
2022-11-22T21:39:41.977Z,9.70
2022-11-22T21:42:08.741Z,9.60
2022-11-22T21:44:35.484Z,9.70
2022-11-22T21:47:03.242Z,9.70
2022-11-22T21:49:30.067Z,9.70
2022-11-22T21:51:56.945Z,9.70
2022-11-22T21:54:23.603Z,9.70
2022-11-22T21:56:50.395Z,9.70
2022-11-22T21:59:17.605Z,9.70
2022-11-22T22:01:44.418Z,9.70
2022-11-22T22:04:11.251Z,9.70
2022-11-22T22:06:41.234Z,9.70
2022-11-22T22:09:10.293Z,9.70
2022-11-22T22:11:36.973Z,9.70
2022-11-22T22:14:03.782Z,9.60
2022-11-22T22:16:30.466Z,9.70
2022-11-22T22:18:57.223Z,9.70
2022-11-22T22:21:24.021Z,9.70
2022-11-22T22:23:50.795Z,9.70
2022-11-22T22:26:18.073Z,9.70
2022-11-22T22:28:45.912Z,9.70
2022-11-22T22:31:17.314Z,9.70
2022-11-22T22:33:45.669Z,9.70
2022-11-22T22:36:13.240Z,9.80
2022-11-22T22:38:40.730Z,9.80
2022-11-22T22:41:09.941Z,9.80
2022-11-22T22:43:39.307Z,9.90
2022-11-22T22:46:10.365Z,9.90
2022-11-22T22:48:37.048Z,9.90
2022-11-22T22:51:09.070Z,10.00
2022-11-22T22:53:36.082Z,10.00
2022-11-22T22:56:03.260Z,10.10
2022-11-22T22:58:29.959Z,10.10
2022-11-22T23:01:13.582Z,10.10
2022-11-22T23:03:40.712Z,10.10
2022-11-22T23:06:09.356Z,10.20
2022-11-22T23:08:36.604Z,10.20
2022-11-22T23:11:08.847Z,10.20
2022-11-22T23:13:37.220Z,10.20
2022-11-22T23:16:05.489Z,10.30
2022-11-22T23:18:36.032Z,10.20
2022-11-22T23:21:05.192Z,10.30
2022-11-22T23:23:32.683Z,10.20
2022-11-22T23:26:07.995Z,10.20
2022-11-22T23:28:35.290Z,10.20
2022-11-22T23:31:11.554Z,10.20
2022-11-22T23:33:38.375Z,10.20
2022-11-22T23:36:10.384Z,10.20
2022-11-22T23:38:37.975Z,10.30
2022-11-22T23:41:05.028Z,10.30
2022-11-22T23:43:31.987Z,10.30
2022-11-22T23:45:59.015Z,10.30
2022-11-22T23:48:26.864Z,10.40
2022-11-22T23:50:53.696Z,10.40
2022-11-22T23:53:20.560Z,10.40
2022-11-22T23:55:47.284Z,10.30
2022-11-22T23:58:13.954Z,10.30
